Terminal Aerodrome Forecast
Issued by NWS

Home | Current Version | Previous Version | Text Only | Print | Product List | Glossary On
Versions: 1 2 3 4 5 6 7 8 9 10 11 12 13 14 15 16 17 18 19 20 21 22 23 24 25 26 27 28
000
FTUS45 KGJT 011730
TAFDRO
TAF
KDRO 011730Z 0118/0218 10006KT P6SM BKN200
     FM012000 27010KT P6SM VCTS SCT110CB BKN200
      TEMPO 0121/0201 VRB20G30KT -TSRA SCT070 BKN090CB
     FM020300 04008KT P6SM VCTS SCT080CB BKN120
     FM020600 02004KT P6SM VCSH SCT110 BKN200
     FM020900 VRB03KT P6SM FEW120 BKN250=

USA.gov is the U.S. government's official web portal to all federal, state and local government web resources and services.